createdAt,value
2023-04-11T00:01:35.994Z,96914.56
2023-04-11T00:04:02.500Z,96902.72
2023-04-11T00:06:28.877Z,96896.00
2023-04-11T00:08:55.348Z,96890.34
2023-04-11T00:11:21.763Z,96915.63
2023-04-11T00:13:48.017Z,96912.09
2023-04-11T00:16:14.344Z,96911.59
2023-04-11T00:18:40.658Z,96907.25
2023-04-11T00:21:06.972Z,96915.06
2023-04-11T00:23:33.254Z,96934.41
2023-04-11T00:25:59.524Z,96932.50
2023-04-11T00:28:25.786Z,96939.22
2023-04-11T00:30:52.062Z,96961.75
2023-04-11T00:33:18.323Z,96954.31
2023-04-11T00:35:44.619Z,96938.44
2023-04-11T00:38:10.880Z,96933.09
2023-04-11T00:40:37.159Z,96926.91
2023-04-11T00:43:03.417Z,96926.09
2023-04-11T00:45:29.718Z,96920.75
2023-04-11T00:47:56.063Z,96917.25
2023-04-11T00:50:22.342Z,96921.00
2023-04-11T00:52:48.629Z,96903.53
2023-04-11T00:55:14.904Z,96900.28
2023-04-11T00:57:41.152Z,96893.56
2023-04-11T01:00:07.427Z,96884.16
2023-04-11T01:02:33.843Z,96879.59
2023-04-11T01:05:00.171Z,96881.19
2023-04-11T01:07:26.449Z,96895.47
2023-04-11T01:09:52.748Z,96896.00
2023-04-11T01:12:19.019Z,96885.25
2023-04-11T01:14:45.280Z,96891.41
2023-04-11T01:17:11.536Z,96896.00
2023-04-11T01:19:37.816Z,96903.50
2023-04-11T01:22:04.102Z,96902.19
2023-04-11T01:24:30.358Z,96913.47
2023-04-11T01:26:56.671Z,96916.69
2023-04-11T01:29:22.955Z,96918.03
2023-04-11T01:31:49.233Z,96924.75
2023-04-11T01:34:15.493Z,96919.94
2023-04-11T01:36:41.744Z,96922.09
2023-04-11T01:39:08.017Z,96917.50
2023-04-11T01:41:34.276Z,96916.16
2023-04-11T01:44:00.534Z,96931.75
2023-04-11T01:46:26.793Z,96942.78
2023-04-11T01:48:53.268Z,96944.09
2023-04-11T01:51:19.703Z,96946.78
2023-04-11T01:53:46.008Z,96945.16
2023-04-11T01:56:12.290Z,96946.22
2023-04-11T01:58:38.540Z,96932.78
2023-04-11T02:01:04.847Z,96927.41
2023-04-11T02:03:31.304Z,96927.41
2023-04-11T02:05:57.676Z,96914.00
2023-04-11T02:08:23.924Z,96911.31
2023-04-11T02:10:50.183Z,96918.84
2023-04-11T02:13:16.446Z,96919.94
2023-04-11T02:15:42.870Z,96922.06
2023-04-11T02:18:09.235Z,96929.06
2023-04-11T02:20:35.508Z,96928.00
2023-04-11T02:23:01.842Z,96935.78
2023-04-11T02:25:28.176Z,96951.91
2023-04-11T02:27:54.426Z,96931.19
2023-04-11T02:30:20.726Z,96931.47
2023-04-11T02:32:47.014Z,96927.97
2023-04-11T02:35:13.335Z,96919.09
2023-04-11T02:37:39.615Z,96923.69
2023-04-11T02:40:05.886Z,96926.88
2023-04-11T02:42:32.163Z,96929.56
2023-04-11T02:44:58.464Z,96938.44
2023-04-11T02:47:24.735Z,96944.09
2023-04-11T02:49:51.035Z,96943.53
2023-04-11T02:52:17.312Z,96945.88
2023-04-11T02:54:43.600Z,96962.50
2023-04-11T02:57:09.838Z,96958.75
2023-04-11T02:59:36.099Z,96951.72
2023-04-11T03:02:02.502Z,96959.00
2023-04-11T03:04:28.902Z,96971.38
2023-04-11T03:06:55.227Z,96968.31
2023-04-11T03:09:21.484Z,96964.28
2023-04-11T03:11:47.750Z,96965.94
2023-04-11T03:14:14.007Z,96961.09
2023-04-11T03:16:40.262Z,96954.09
2023-04-11T03:19:06.531Z,96956.25
2023-04-11T03:21:32.793Z,96944.44
2023-04-11T03:23:59.075Z,96953.06
2023-04-11T03:26:25.394Z,96945.53
2023-04-11T03:28:51.658Z,96952.22
2023-04-11T03:31:17.955Z,96955.69
2023-04-11T03:33:44.249Z,96951.63
2023-04-11T03:36:10.643Z,96951.59
2023-04-11T03:38:37.011Z,96957.22
2023-04-11T03:41:03.271Z,96946.47
2023-04-11T03:43:29.540Z,96939.22
2023-04-11T03:45:55.800Z,96936.56
2023-04-11T03:48:22.123Z,96941.38
2023-04-11T03:50:48.379Z,96930.91
2023-04-11T03:53:14.649Z,96922.38
2023-04-11T03:55:40.913Z,96917.53
2023-04-11T03:58:07.167Z,96916.69
2023-04-11T04:00:33.427Z,96915.38
2023-04-11T04:02:59.977Z,96923.44
2023-04-11T04:05:26.355Z,96926.13
2023-04-11T04:07:55.170Z,96932.78
2023-04-11T04:10:22.088Z,96919.63
2023-04-11T04:12:48.352Z,96927.44
2023-04-11T04:15:14.691Z,96922.06
2023-04-11T04:17:41.125Z,96929.88
2023-04-11T04:20:07.392Z,96935.78
2023-04-11T04:22:33.661Z,96937.66
2023-04-11T04:24:59.934Z,96944.91
2023-04-11T04:27:26.227Z,96945.69
2023-04-11T04:30:03.603Z,96948.03
2023-04-11T04:32:30.739Z,96938.06
2023-04-11T04:34:57.094Z,96940.22
2023-04-11T04:37:23.340Z,96942.63
2023-04-11T04:39:49.632Z,96941.00
2023-04-11T04:42:15.894Z,96943.97
2023-04-11T04:44:42.170Z,96953.41
2023-04-11T04:47:08.445Z,96966.03
2023-04-11T04:49:34.710Z,96972.69
2023-04-11T04:52:00.977Z,96978.53
2023-04-11T04:54:27.244Z,96979.03
2023-04-11T04:56:53.496Z,96987.84
2023-04-11T04:59:19.777Z,96991.56
2023-04-11T05:01:46.251Z,96989.16
2023-04-11T05:04:12.757Z,96990.44
2023-04-11T05:06:39.111Z,96986.50
2023-04-11T05:09:05.401Z,96989.69
2023-04-11T05:11:31.701Z,96995.25
2023-04-11T05:13:58.256Z,96988.97
2023-04-11T05:16:24.784Z,96983.47
2023-04-11T05:18:51.079Z,96992.31
2023-04-11T05:21:17.326Z,97000.34
2023-04-11T05:23:43.586Z,97008.22
2023-04-11T05:26:09.839Z,97002.19
2023-04-11T05:28:36.110Z,96997.13
2023-04-11T05:31:02.519Z,97008.78
2023-04-11T05:33:28.836Z,97013.94
2023-04-11T05:35:55.115Z,97016.38
2023-04-11T05:38:21.402Z,97008.47
2023-04-11T05:40:47.717Z,97016.41
2023-04-11T05:43:13.999Z,97012.09
2023-04-11T05:45:40.375Z,97021.94
2023-04-11T05:48:06.742Z,97039.19
2023-04-11T05:50:33.067Z,97042.88
2023-04-11T05:52:59.324Z,97027.66
2023-04-11T05:55:25.614Z,97033.13
2023-04-11T05:57:51.882Z,97032.41
2023-04-11T06:00:18.150Z,97031.72
2023-04-11T06:02:44.660Z,97024.81
2023-04-11T06:05:11.224Z,97021.63
2023-04-11T06:07:37.537Z,97040.41
2023-04-11T06:10:03.794Z,97043.34
2023-04-11T06:12:30.066Z,97039.91
2023-04-11T06:14:56.313Z,97050.13
2023-04-11T06:17:22.596Z,97047.19
2023-04-11T06:19:48.861Z,97050.63
2023-04-11T06:22:15.144Z,97060.16
2023-04-11T06:24:41.399Z,97048.28
2023-04-11T06:27:07.646Z,97050.16
2023-04-11T06:29:33.915Z,97042.84
2023-04-11T06:32:00.190Z,97035.00
2023-04-11T06:34:26.468Z,97029.56
2023-04-11T06:36:52.779Z,97036.41
2023-04-11T06:39:19.047Z,97039.41
2023-04-11T06:41:45.298Z,97033.41
2023-04-11T06:44:11.585Z,97045.06
2023-04-11T06:46:37.866Z,97033.78
2023-04-11T06:49:04.145Z,97041.56
2023-04-11T06:51:30.419Z,97045.88
2023-04-11T06:53:56.916Z,97054.72
2023-04-11T06:56:23.408Z,97066.00
2023-04-11T06:58:49.697Z,97063.88
2023-04-11T07:01:16.035Z,97069.00
2023-04-11T07:03:42.606Z,97058.53
2023-04-11T07:06:09.070Z,97068.94
2023-04-11T07:08:35.333Z,97071.19
2023-04-11T07:11:01.591Z,97059.38
2023-04-11T07:13:27.852Z,97064.75
2023-04-11T07:15:54.106Z,97056.66
2023-04-11T07:18:20.379Z,97062.06
2023-04-11T07:20:46.651Z,97066.00
2023-04-11T07:23:12.912Z,97077.56
2023-04-11T07:25:39.211Z,97083.72
2023-04-11T07:28:05.546Z,97076.53
2023-04-11T07:30:31.812Z,97089.41
2023-04-11T07:32:58.077Z,97073.59
2023-04-11T07:35:24.345Z,97065.50
2023-04-11T07:37:50.598Z,97062.28
2023-04-11T07:40:16.852Z,97076.28
2023-04-11T07:42:43.128Z,97058.16
2023-04-11T07:45:09.423Z,97060.59
2023-04-11T07:47:35.836Z,97056.09
2023-04-11T07:50:02.155Z,97057.47
2023-04-11T07:52:28.412Z,97052.66
2023-04-11T07:54:54.665Z,97049.72
2023-04-11T07:57:20.932Z,97053.81
2023-04-11T07:59:47.185Z,97045.53
2023-04-11T08:02:13.544Z,97054.13
2023-04-11T08:04:39.932Z,97048.09
2023-04-11T08:07:06.385Z,97058.47
2023-04-11T08:09:32.638Z,97043.34
2023-04-11T08:11:58.969Z,97051.50
2023-04-11T08:14:25.278Z,97044.44
2023-04-11T08:16:52.923Z,97055.78
2023-04-11T08:19:19.447Z,97053.56
2023-04-11T08:21:45.753Z,97048.25
2023-04-11T08:24:12.015Z,97048.09
2023-04-11T08:26:38.273Z,97051.09
2023-04-11T08:29:04.535Z,97052.16
2023-04-11T08:31:30.792Z,97057.56
2023-04-11T08:33:59.290Z,97069.16
2023-04-11T08:36:27.116Z,97068.91
2023-04-11T08:38:53.392Z,97076.78
2023-04-11T08:41:19.665Z,97079.81
2023-04-11T08:43:45.909Z,97082.84
2023-04-11T08:46:12.265Z,97089.03
2023-04-11T08:48:38.566Z,97083.88
2023-04-11T08:51:04.835Z,97099.09
2023-04-11T08:53:31.112Z,97083.81
2023-04-11T08:55:57.380Z,97083.06
2023-04-11T08:58:23.630Z,97083.41
2023-04-11T09:00:50.037Z,97082.38
2023-04-11T09:03:16.472Z,97081.28
2023-04-11T09:05:43.297Z,97078.84
2023-04-11T09:08:09.823Z,97073.72
2023-04-11T09:10:36.116Z,97070.78
2023-04-11T09:13:03.619Z,97065.38
2023-04-11T09:15:29.980Z,97069.03
2023-04-11T09:17:58.166Z,97068.56
2023-04-11T09:20:26.125Z,97079.84
2023-04-11T09:22:52.387Z,97069.69
2023-04-11T09:25:18.660Z,97070.16
2023-04-11T09:27:44.948Z,97073.97
2023-04-11T09:30:11.194Z,97076.97
2023-04-11T09:32:37.639Z,97076.75
2023-04-11T09:35:03.985Z,97077.31
2023-04-11T09:37:30.268Z,97084.75
2023-04-11T09:39:56.534Z,97075.66
2023-04-11T09:42:22.813Z,97072.63
2023-04-11T09:44:49.066Z,97061.47
2023-04-11T09:47:15.329Z,97059.94
2023-04-11T09:49:41.599Z,97068.78
2023-04-11T09:52:07.863Z,97065.72
2023-04-11T09:54:34.113Z,97054.81
2023-04-11T09:57:00.381Z,97057.56
2023-04-11T09:59:26.633Z,97063.16
2023-04-11T10:01:53.026Z,97072.78
2023-04-11T10:04:19.408Z,97070.66
2023-04-11T10:06:45.699Z,97064.78
2023-04-11T10:09:12.027Z,97061.53
2023-04-11T10:11:38.303Z,97067.69
2023-04-11T10:14:04.560Z,97055.88
2023-04-11T10:16:30.845Z,97059.41
2023-04-11T10:18:57.162Z,97063.50
2023-04-11T10:21:23.437Z,97059.28
2023-04-11T10:23:49.691Z,97059.06
2023-04-11T10:26:15.942Z,97062.31
2023-04-11T10:28:42.214Z,97047.88
2023-04-11T10:31:08.487Z,97045.16
2023-04-11T10:33:34.836Z,97055.25
2023-04-11T10:36:01.120Z,97051.25
2023-04-11T10:38:27.375Z,97040.50
2023-04-11T10:40:53.638Z,97048.03
2023-04-11T10:43:19.892Z,97049.19
2023-04-11T10:45:46.144Z,97049.19
2023-04-11T10:48:12.419Z,97045.34
2023-04-11T10:50:38.673Z,97033.28
2023-04-11T10:53:04.976Z,97034.31
2023-04-11T10:55:31.245Z,97040.78
2023-04-11T10:57:57.531Z,97036.50
2023-04-11T11:00:23.831Z,97037.84
2023-04-11T11:02:50.296Z,97028.16
2023-04-11T11:05:16.678Z,97043.44
2023-04-11T11:07:42.925Z,97041.22
2023-04-11T11:10:09.189Z,97047.41
2023-04-11T11:12:35.429Z,97043.31
2023-04-11T11:15:01.745Z,97038.25
2023-04-11T11:17:28.029Z,97037.47
2023-04-11T11:19:54.306Z,97040.66
2023-04-11T11:22:20.564Z,97033.81
2023-04-11T11:24:46.827Z,97039.19
2023-04-11T11:27:13.111Z,97037.81
2023-04-11T11:29:39.362Z,97037.78
2023-04-11T11:32:05.652Z,97042.13
2023-04-11T11:34:31.955Z,97051.88
2023-04-11T11:36:58.234Z,97045.75
2023-04-11T11:39:24.492Z,97044.63
2023-04-11T11:41:50.782Z,97043.66
2023-04-11T11:44:17.034Z,97045.56
2023-04-11T11:46:43.385Z,97049.09
2023-04-11T11:49:09.676Z,97046.38
2023-04-11T11:51:35.950Z,97059.06
2023-04-11T11:54:02.222Z,97046.16
2023-04-11T11:56:28.482Z,97044.97
2023-04-11T11:58:54.758Z,97039.16
2023-04-11T12:01:21.036Z,97024.38
2023-04-11T12:03:47.413Z,97016.53
2023-04-11T12:06:13.830Z,97023.25
2023-04-11T12:08:40.108Z,97014.34
2023-04-11T12:11:06.356Z,97027.19
2023-04-11T12:13:32.605Z,97032.53
2023-04-11T12:15:58.891Z,97039.25
2023-04-11T12:18:25.234Z,97030.28
2023-04-11T12:20:51.504Z,97029.25
2023-04-11T12:23:17.789Z,97028.69
2023-04-11T12:25:44.067Z,97029.25
2023-04-11T12:28:10.387Z,97026.53
2023-04-11T12:30:36.736Z,97033.50
2023-04-11T12:33:03.055Z,97032.50
2023-04-11T12:35:29.383Z,97022.63
2023-04-11T12:37:55.691Z,97015.88
2023-04-11T12:40:21.965Z,97026.44
2023-04-11T12:45:17.418Z,97032.44
2023-04-11T12:47:43.721Z,97036.28
2023-04-11T12:50:10.090Z,97027.63
2023-04-11T12:52:36.338Z,97013.97
2023-04-11T12:55:02.594Z,97008.09
2023-04-11T12:57:29.024Z,97009.97
2023-04-11T12:59:55.392Z,97003.28
2023-04-11T13:02:21.978Z,97006.22
2023-04-11T13:04:51.559Z,97003.53
2023-04-11T13:07:17.858Z,96998.94
2023-04-11T13:09:44.131Z,96997.34
2023-04-11T13:12:10.379Z,96998.72
2023-04-11T13:14:36.656Z,96987.44
2023-04-11T13:17:02.914Z,96988.50
2023-04-11T13:19:29.178Z,96998.97
2023-04-11T13:21:55.457Z,96998.59
2023-04-11T13:24:21.725Z,96992.44
2023-04-11T13:26:47.969Z,96987.38
2023-04-11T13:29:14.231Z,96970.22
2023-04-11T13:31:40.540Z,96980.38
2023-04-11T13:34:06.945Z,96980.72
2023-04-11T13:36:34.524Z,96982.97
2023-04-11T13:39:00.947Z,96972.53
2023-04-11T13:41:27.212Z,96977.63
2023-04-11T13:43:53.463Z,96976.50
2023-04-11T13:46:19.748Z,96971.34
2023-04-11T13:48:46.101Z,96962.22
2023-04-11T13:51:12.420Z,96960.34
2023-04-11T13:53:38.768Z,96960.34
2023-04-11T13:56:05.077Z,96956.84
2023-04-11T13:58:31.354Z,96959.03
2023-04-11T14:00:57.701Z,96956.06
2023-04-11T14:03:24.045Z,96953.38
2023-04-11T14:05:50.352Z,96962.78
2023-04-11T14:08:16.600Z,96953.13
2023-04-11T14:10:42.905Z,96946.31
2023-04-11T14:15:37.554Z,96950.78
2023-04-11T14:18:03.854Z,96952.91
2023-04-11T14:20:30.247Z,96951.25
2023-04-11T14:22:56.504Z,96943.22
2023-04-11T14:25:22.752Z,96943.69
2023-04-11T14:27:51.069Z,96938.84
2023-04-11T14:30:19.231Z,96937.31
2023-04-11T14:32:47.466Z,96928.19
2023-04-11T14:35:13.795Z,96919.84
2023-04-11T14:37:40.161Z,96924.41
2023-04-11T14:40:06.403Z,96923.38
2023-04-11T14:42:32.651Z,96930.13
2023-04-11T14:44:58.935Z,96918.81
2023-04-11T14:47:25.224Z,96915.88
2023-04-11T14:49:51.511Z,96911.13
2023-04-11T14:52:17.779Z,96906.59
2023-04-11T14:54:44.066Z,96911.97
2023-04-11T14:57:10.419Z,96903.69
2023-04-11T14:59:36.685Z,96899.13
2023-04-11T15:02:03.030Z,96898.59
2023-04-11T15:04:29.581Z,96885.97
2023-04-11T15:06:55.891Z,96892.72
2023-04-11T15:09:22.144Z,96881.66
2023-04-11T15:11:48.444Z,96881.66
2023-04-11T15:14:14.709Z,96885.16
2023-04-11T15:16:40.957Z,96875.78
2023-04-11T15:19:07.229Z,96870.41
2023-04-11T15:21:33.489Z,96880.91
2023-04-11T15:23:59.753Z,96873.13
2023-04-11T15:26:26.022Z,96874.75
2023-04-11T15:28:52.329Z,96876.38
2023-04-11T15:31:18.635Z,96874.47
2023-04-11T15:33:44.941Z,96861.03
2023-04-11T15:36:11.257Z,96851.06
2023-04-11T15:38:37.542Z,96847.31
2023-04-11T15:41:03.806Z,96849.47
2023-04-11T15:43:30.069Z,96847.84
2023-04-11T15:45:56.332Z,96845.16
2023-04-11T15:48:22.626Z,96838.72
2023-04-11T15:50:48.900Z,96841.38
2023-04-11T15:53:15.178Z,96843.53
2023-04-11T15:55:41.438Z,96838.44
2023-04-11T15:58:07.710Z,96834.41
2023-04-11T16:00:33.981Z,96830.34
2023-04-11T16:03:00.448Z,96827.13
2023-04-11T16:05:26.909Z,96818.25
2023-04-11T16:07:53.218Z,96813.94
2023-04-11T16:10:19.472Z,96812.88
2023-04-11T16:12:45.745Z,96822.56
2023-04-11T16:15:12.111Z,96824.19
2023-04-11T16:17:38.583Z,96815.03
2023-04-11T16:20:04.896Z,96817.97
2023-04-11T16:22:31.161Z,96812.59
2023-04-11T16:24:57.570Z,96817.44
2023-04-11T16:27:23.839Z,96818.50
2023-04-11T16:29:50.111Z,96817.97
2023-04-11T16:32:16.406Z,96809.63
2023-04-11T16:34:42.662Z,96815.00
2023-04-11T16:37:08.953Z,96808.00
2023-04-11T16:39:35.214Z,96809.63
2023-04-11T16:42:01.538Z,96797.25
2023-04-11T16:44:27.818Z,96798.34
2023-04-11T16:46:54.093Z,96798.34
2023-04-11T16:49:20.442Z,96787.31
2023-04-11T16:51:46.731Z,96791.34
2023-04-11T16:54:12.980Z,96789.22
2023-04-11T16:56:39.227Z,96776.56
2023-04-11T16:59:05.523Z,96789.75
2023-04-11T17:01:31.863Z,96788.13
2023-04-11T17:03:58.464Z,96783.56
2023-04-11T17:06:24.894Z,96790.03
2023-04-11T17:08:51.175Z,96780.63
2023-04-11T17:11:17.437Z,96783.84
2023-04-11T17:13:43.701Z,96776.31
2023-04-11T17:16:10.113Z,96778.19
2023-04-11T17:18:36.460Z,96779.00
2023-04-11T17:21:02.779Z,96784.38
2023-04-11T17:23:41.257Z,96780.34
2023-04-11T17:26:09.119Z,96784.13
2023-04-11T17:28:35.387Z,96779.53
2023-04-11T17:31:01.713Z,96780.09
2023-04-11T17:33:27.993Z,96779.00
2023-04-11T17:35:54.299Z,96782.78
2023-04-11T17:38:20.563Z,96772.56
2023-04-11T17:40:46.844Z,96777.41
2023-04-11T17:43:13.115Z,96779.56
2023-04-11T17:45:39.380Z,96780.34
2023-04-11T17:48:05.644Z,96783.59
2023-04-11T17:50:31.920Z,96776.59
2023-04-11T17:52:58.233Z,96776.31
2023-04-11T17:55:24.510Z,96764.50
2023-04-11T17:57:50.767Z,96768.81
2023-04-11T18:00:17.025Z,96772.84
2023-04-11T18:02:43.480Z,96772.56
2023-04-11T18:05:22.423Z,96780.09
2023-04-11T18:07:50.478Z,96782.25
2023-04-11T18:10:16.769Z,96777.94
2023-04-11T18:12:43.080Z,96784.16
2023-04-11T18:15:09.377Z,96784.13
2023-04-11T18:17:35.681Z,96775.25
2023-04-11T18:20:02.072Z,96772.03
2023-04-11T18:22:28.405Z,96772.56
2023-04-11T18:24:54.685Z,96773.41
2023-04-11T18:27:21.016Z,96775.00
2023-04-11T18:29:47.323Z,96764.75
2023-04-11T18:32:20.292Z,96767.19
2023-04-11T18:34:47.773Z,96749.22
2023-04-11T18:37:14.106Z,96758.63
2023-04-11T18:39:40.444Z,96780.38
2023-04-11T18:42:06.738Z,96776.31
2023-04-11T18:44:33.970Z,96772.81
2023-04-11T18:47:05.223Z,96771.75
2023-04-11T18:49:34.597Z,96777.66
2023-04-11T18:52:00.935Z,96777.66
2023-04-11T18:54:27.189Z,96777.66
2023-04-11T18:56:54.291Z,96784.91
2023-04-11T18:59:24.241Z,96782.22
2023-04-11T19:01:51.555Z,96784.91
2023-04-11T19:04:18.070Z,96781.69
2023-04-11T19:06:44.410Z,96782.22
2023-04-11T19:09:10.668Z,96784.09
2023-04-11T19:11:36.933Z,96773.63
2023-04-11T19:14:03.180Z,96779.53
2023-04-11T19:16:29.510Z,96780.31
2023-04-11T19:18:55.829Z,96780.28
2023-04-11T19:21:22.143Z,96783.75
2023-04-11T19:23:48.438Z,96785.13
2023-04-11T19:26:14.810Z,96778.94
2023-04-11T19:28:41.068Z,96781.91
2023-04-11T19:31:07.605Z,96774.09
2023-04-11T19:33:33.872Z,96770.34
2023-04-11T19:36:00.240Z,96752.88
2023-04-11T19:38:26.591Z,96753.16
2023-04-11T19:40:52.918Z,96755.84
2023-04-11T19:43:19.199Z,96752.91
2023-04-11T19:45:45.513Z,96751.03
2023-04-11T19:48:11.841Z,96748.06
2023-04-11T19:50:38.155Z,96751.28
2023-04-11T19:53:04.414Z,96742.38
2023-04-11T19:55:30.693Z,96733.53
2023-04-11T19:57:56.980Z,96735.16
2023-04-11T20:00:23.236Z,96726.03
2023-04-11T20:02:49.704Z,96724.94
2023-04-11T20:05:16.139Z,96716.09
2023-04-11T20:07:42.565Z,96714.47
2023-04-11T20:10:08.887Z,96712.59
2023-04-11T20:12:35.144Z,96709.09
2023-04-11T20:15:01.505Z,96709.91
2023-04-11T20:17:27.782Z,96711.53
2023-04-11T20:19:54.075Z,96710.72
2023-04-11T20:22:20.380Z,96705.63
2023-04-11T20:24:46.650Z,96703.19
2023-04-11T20:27:12.959Z,96698.09
2023-04-11T20:29:39.198Z,96699.97
2023-04-11T20:32:05.525Z,96704.78
2023-04-11T20:34:31.874Z,96699.44
2023-04-11T20:36:58.154Z,96702.38
2023-04-11T20:39:24.425Z,96706.94
2023-04-11T20:41:50.923Z,96707.47
2023-04-11T20:44:17.241Z,96701.28
2023-04-11T20:46:43.615Z,96689.75
2023-04-11T20:49:10.006Z,96687.06
2023-04-11T20:51:36.294Z,96677.66
2023-04-11T20:54:02.580Z,96670.41
2023-04-11T20:56:28.850Z,96672.03
2023-04-11T21:01:06.403Z,96652.69
2023-04-11T21:03:32.767Z,96659.13
2023-04-11T21:05:59.166Z,96647.06
2023-04-11T21:08:25.444Z,96636.59
2023-04-11T21:10:51.721Z,96627.47
2023-04-11T21:13:17.984Z,96627.47
2023-04-11T21:15:44.360Z,96629.34
2023-04-11T21:18:10.642Z,96626.91
2023-04-11T21:20:36.943Z,96626.38
2023-04-11T21:23:03.215Z,96622.63
2023-04-11T21:25:29.506Z,96630.94
2023-04-11T21:27:55.773Z,96625.28
2023-04-11T21:30:22.052Z,96623.16
2023-04-11T21:32:48.373Z,96623.69
2023-04-11T21:35:14.662Z,96613.22
2023-04-11T21:37:40.909Z,96609.72
2023-04-11T21:40:07.171Z,96603.28
2023-04-11T21:42:33.438Z,96603.28
2023-04-11T21:44:59.698Z,96601.69
2023-04-11T21:47:25.972Z,96598.19
2023-04-11T21:49:52.269Z,96596.84
2023-04-11T21:52:18.524Z,96606.50
2023-04-11T21:54:44.780Z,96612.69
2023-04-11T21:57:11.056Z,96626.38
2023-04-11T21:59:37.312Z,96621.00
2023-04-11T22:02:03.725Z,96604.09
2023-04-11T22:04:30.116Z,96589.31
2023-04-11T22:06:56.448Z,96581.81
2023-04-11T22:09:22.730Z,96584.50
2023-04-11T22:11:48.999Z,96592.56
2023-04-11T22:14:15.261Z,96593.34
2023-04-11T22:16:41.567Z,96589.06
2023-04-11T22:19:07.869Z,96590.94
2023-04-11T22:21:34.153Z,96590.41
2023-04-11T22:24:00.676Z,96580.47
2023-04-11T22:26:27.029Z,96574.81
2023-04-11T22:28:53.317Z,96566.50
2023-04-11T22:31:19.610Z,96556.03
2023-04-11T22:33:45.905Z,96564.38
2023-04-11T22:36:12.166Z,96552.81
2023-04-11T22:38:38.439Z,96547.47
2023-04-11T22:41:04.703Z,96539.16
2023-04-11T22:43:30.988Z,96543.72
2023-04-11T22:45:57.307Z,96536.72
2023-04-11T22:48:23.617Z,96522.78
2023-04-11T22:50:49.890Z,96519.81
2023-04-11T22:53:16.140Z,96512.84
2023-04-11T22:55:42.430Z,96507.47
2023-04-11T22:58:08.736Z,96502.38
2023-04-11T23:00:34.987Z,96499.69
2023-04-11T23:03:01.280Z,96485.75
2023-04-11T23:05:27.595Z,96487.09
2023-04-11T23:07:53.866Z,96492.72
2023-04-11T23:10:20.153Z,96491.38
2023-04-11T23:12:46.407Z,96493.25
2023-04-11T23:15:12.671Z,96497.81
2023-04-11T23:17:38.958Z,96495.94
2023-04-11T23:20:05.244Z,96497.00
2023-04-11T23:22:31.522Z,96495.66
2023-04-11T23:24:57.786Z,96497.00
2023-04-11T23:27:24.056Z,96495.41
2023-04-11T23:29:50.334Z,96487.09
2023-04-11T23:32:16.591Z,96483.59
2023-04-11T23:34:42.847Z,96483.06
2023-04-11T23:37:09.106Z,96473.13
2023-04-11T23:39:35.364Z,96468.31
2023-04-11T23:42:01.653Z,96459.16
2023-04-11T23:44:28.008Z,96457.28
2023-04-11T23:46:54.256Z,96453.00
2023-04-11T23:49:20.511Z,96450.03
2023-04-11T23:51:46.770Z,96442.00
2023-04-11T23:54:13.046Z,96440.38
2023-04-11T23:56:39.324Z,96431.78
2023-04-11T23:59:05.584Z,96425.09
